sensor_id;sensor_type;location;lat;lon;timestamp;temperature;humidity
30893;DHT22;17595;50.884;4.346;2023-04-28T00:01:15;14.10;99.90
30893;DHT22;17595;50.884;4.346;2023-04-28T00:03:41;14.10;99.90
30893;DHT22;17595;50.884;4.346;2023-04-28T00:06:06;14.10;99.90
30893;DHT22;17595;50.884;4.346;2023-04-28T00:08:32;14.00;99.90
30893;DHT22;17595;50.884;4.346;2023-04-28T00:10:58;14.00;99.90
30893;DHT22;17595;50.884;4.346;2023-04-28T00:13:24;13.90;99.90
30893;DHT22;17595;50.884;4.346;2023-04-28T00:15:51;13.70;99.90
30893;DHT22;17595;50.884;4.346;2023-04-28T00:18:20;13.60;99.90
30893;DHT22;17595;50.884;4.346;2023-04-28T00:20:45;13.40;99.90
30893;DHT22;17595;50.884;4.346;2023-04-28T00:23:11;13.30;99.90
30893;DHT22;17595;50.884;4.346;2023-04-28T00:25:37;13.30;99.90
30893;DHT22;17595;50.884;4.346;2023-04-28T00:28:03;13.40;99.90
30893;DHT22;17595;50.884;4.346;2023-04-28T00:30:29;13.40;99.90
30893;DHT22;17595;50.884;4.346;2023-04-28T00:32:55;13.40;99.90
30893;DHT22;17595;50.884;4.346;2023-04-28T00:35:21;13.40;99.90
30893;DHT22;17595;50.884;4.346;2023-04-28T00:37:47;13.40;99.90
30893;DHT22;17595;50.884;4.346;2023-04-28T00:40:12;13.30;99.90
30893;DHT22;17595;50.884;4.346;2023-04-28T00:42:38;13.40;99.90
30893;DHT22;17595;50.884;4.346;2023-04-28T00:45:04;13.40;99.90
30893;DHT22;17595;50.884;4.346;2023-04-28T00:47:36;13.40;99.90
30893;DHT22;17595;50.884;4.346;2023-04-28T00:50:03;13.40;99.90
30893;DHT22;17595;50.884;4.346;2023-04-28T00:52:30;13.40;99.90
30893;DHT22;17595;50.884;4.346;2023-04-28T00:54:56;13.50;99.90
30893;DHT22;17595;50.884;4.346;2023-04-28T00:57:22;13.50;99.90
30893;DHT22;17595;50.884;4.346;2023-04-28T00:59:48;13.40;99.90
30893;DHT22;17595;50.884;4.346;2023-04-28T01:02:14;13.40;99.90
30893;DHT22;17595;50.884;4.346;2023-04-28T01:04:44;13.30;99.90
30893;DHT22;17595;50.884;4.346;2023-04-28T01:07:09;13.30;99.90
30893;DHT22;17595;50.884;4.346;2023-04-28T01:09:36;13.40;99.90
30893;DHT22;17595;50.884;4.346;2023-04-28T01:12:03;13.30;99.90
30893;DHT22;17595;50.884;4.346;2023-04-28T01:14:29;13.40;99.90
30893;DHT22;17595;50.884;4.346;2023-04-28T01:16:55;13.40;99.90
30893;DHT22;17595;50.884;4.346;2023-04-28T01:19:22;13.40;99.90
30893;DHT22;17595;50.884;4.346;2023-04-28T01:21:50;13.40;99.90
30893;DHT22;17595;50.884;4.346;2023-04-28T01:24:17;13.30;99.90
30893;DHT22;17595;50.884;4.346;2023-04-28T01:26:42;13.30;99.90
30893;DHT22;17595;50.884;4.346;2023-04-28T01:29:08;13.40;99.90
30893;DHT22;17595;50.884;4.346;2023-04-28T01:31:34;13.40;99.90
30893;DHT22;17595;50.884;4.346;2023-04-28T01:34:00;13.40;99.90
30893;DHT22;17595;50.884;4.346;2023-04-28T01:36:25;13.40;99.90
30893;DHT22;17595;50.884;4.346;2023-04-28T01:38:53;13.40;99.90
30893;DHT22;17595;50.884;4.346;2023-04-28T01:41:18;13.40;99.90
30893;DHT22;17595;50.884;4.346;2023-04-28T01:43:44;13.40;99.90
30893;DHT22;17595;50.884;4.346;2023-04-28T01:46:10;13.40;99.90
30893;DHT22;17595;50.884;4.346;2023-04-28T01:48:35;13.40;99.90
30893;DHT22;17595;50.884;4.346;2023-04-28T01:51:01;13.40;99.90
30893;DHT22;17595;50.884;4.346;2023-04-28T01:53:27;13.40;99.90
30893;DHT22;17595;50.884;4.346;2023-04-28T01:55:53;13.40;99.90
30893;DHT22;17595;50.884;4.346;2023-04-28T01:58:19;13.40;99.90
30893;DHT22;17595;50.884;4.346;2023-04-28T02:00:44;13.50;99.90
30893;DHT22;17595;50.884;4.346;2023-04-28T02:03:10;13.50;99.90
30893;DHT22;17595;50.884;4.346;2023-04-28T02:05:36;13.60;99.90
30893;DHT22;17595;50.884;4.346;2023-04-28T02:08:02;13.70;99.90
30893;DHT22;17595;50.884;4.346;2023-04-28T02:10:27;13.70;99.90
30893;DHT22;17595;50.884;4.346;2023-04-28T02:12:53;13.50;99.90
30893;DHT22;17595;50.884;4.346;2023-04-28T02:15:19;13.40;99.90
30893;DHT22;17595;50.884;4.346;2023-04-28T02:17:45;13.30;99.90
30893;DHT22;17595;50.884;4.346;2023-04-28T02:20:10;13.30;99.90
30893;DHT22;17595;50.884;4.346;2023-04-28T02:22:36;13.20;99.90
30893;DHT22;17595;50.884;4.346;2023-04-28T02:25:02;13.30;99.90
30893;DHT22;17595;50.884;4.346;2023-04-28T02:27:28;13.30;99.90
30893;DHT22;17595;50.884;4.346;2023-04-28T02:29:53;13.30;99.90
30893;DHT22;17595;50.884;4.346;2023-04-28T02:32:19;13.30;99.90
30893;DHT22;17595;50.884;4.346;2023-04-28T02:34:45;13.20;99.90
30893;DHT22;17595;50.884;4.346;2023-04-28T02:37:10;13.10;99.90
30893;DHT22;17595;50.884;4.346;2023-04-28T02:39:36;13.00;99.90
30893;DHT22;17595;50.884;4.346;2023-04-28T02:42:02;13.00;99.90
30893;DHT22;17595;50.884;4.346;2023-04-28T02:44:29;13.00;99.90
30893;DHT22;17595;50.884;4.346;2023-04-28T02:46:55;12.90;99.90
30893;DHT22;17595;50.884;4.346;2023-04-28T02:49:21;12.90;99.90
30893;DHT22;17595;50.884;4.346;2023-04-28T02:51:47;12.90;99.90
30893;DHT22;17595;50.884;4.346;2023-04-28T02:54:12;13.00;99.90
30893;DHT22;17595;50.884;4.346;2023-04-28T02:56:38;13.00;99.90
30893;DHT22;17595;50.884;4.346;2023-04-28T02:59:05;13.00;99.90
30893;DHT22;17595;50.884;4.346;2023-04-28T03:01:31;13.00;99.90
30893;DHT22;17595;50.884;4.346;2023-04-28T03:03:57;13.00;99.90
30893;DHT22;17595;50.884;4.346;2023-04-28T03:06:23;13.00;99.90
30893;DHT22;17595;50.884;4.346;2023-04-28T03:08:48;13.00;99.90
30893;DHT22;17595;50.884;4.346;2023-04-28T03:11:14;13.00;99.90
30893;DHT22;17595;50.884;4.346;2023-04-28T03:13:40;13.00;99.90
30893;DHT22;17595;50.884;4.346;2023-04-28T03:16:06;13.10;99.90
30893;DHT22;17595;50.884;4.346;2023-04-28T03:18:32;13.20;99.90
30893;DHT22;17595;50.884;4.346;2023-04-28T03:20:58;13.10;99.90
30893;DHT22;17595;50.884;4.346;2023-04-28T03:23:23;13.20;99.90
30893;DHT22;17595;50.884;4.346;2023-04-28T03:25:49;13.10;99.90
30893;DHT22;17595;50.884;4.346;2023-04-28T03:28:15;13.10;99.90
30893;DHT22;17595;50.884;4.346;2023-04-28T03:30:41;13.20;99.90
30893;DHT22;17595;50.884;4.346;2023-04-28T03:33:06;13.20;99.90
30893;DHT22;17595;50.884;4.346;2023-04-28T03:35:32;13.10;99.90
30893;DHT22;17595;50.884;4.346;2023-04-28T03:37:58;13.20;99.90
30893;DHT22;17595;50.884;4.346;2023-04-28T03:40:23;13.10;99.90
30893;DHT22;17595;50.884;4.346;2023-04-28T03:42:49;13.10;99.90
30893;DHT22;17595;50.884;4.346;2023-04-28T03:45:15;13.10;99.90
30893;DHT22;17595;50.884;4.346;2023-04-28T03:47:41;13.10;99.90
30893;DHT22;17595;50.884;4.346;2023-04-28T03:50:07;13.10;99.90
30893;DHT22;17595;50.884;4.346;2023-04-28T03:52:32;13.10;99.90
30893;DHT22;17595;50.884;4.346;2023-04-28T03:54:58;13.10;99.90
30893;DHT22;17595;50.884;4.346;2023-04-28T03:57:24;13.00;99.90
30893;DHT22;17595;50.884;4.346;2023-04-28T03:59:49;12.90;99.90
30893;DHT22;17595;50.884;4.346;2023-04-28T04:02:16;13.00;99.90
30893;DHT22;17595;50.884;4.346;2023-04-28T04:04:42;12.90;99.90
30893;DHT22;17595;50.884;4.346;2023-04-28T04:07:08;12.90;99.90
30893;DHT22;17595;50.884;4.346;2023-04-28T04:09:33;13.10;99.90
30893;DHT22;17595;50.884;4.346;2023-04-28T04:11:59;13.10;99.90
30893;DHT22;17595;50.884;4.346;2023-04-28T04:14:25;13.20;99.90
30893;DHT22;17595;50.884;4.346;2023-04-28T04:16:51;13.20;99.90
30893;DHT22;17595;50.884;4.346;2023-04-28T04:19:17;13.20;99.90
30893;DHT22;17595;50.884;4.346;2023-04-28T04:21:42;13.20;99.90
30893;DHT22;17595;50.884;4.346;2023-04-28T04:24:08;13.20;99.90
30893;DHT22;17595;50.884;4.346;2023-04-28T04:26:33;13.10;99.90
30893;DHT22;17595;50.884;4.346;2023-04-28T04:28:59;13.10;99.90
30893;DHT22;17595;50.884;4.346;2023-04-28T04:31:25;13.20;99.90
30893;DHT22;17595;50.884;4.346;2023-04-28T04:33:51;13.30;99.90
30893;DHT22;17595;50.884;4.346;2023-04-28T04:36:17;13.40;99.90
30893;DHT22;17595;50.884;4.346;2023-04-28T04:38:42;13.40;99.90
30893;DHT22;17595;50.884;4.346;2023-04-28T04:41:08;13.40;99.90
30893;DHT22;17595;50.884;4.346;2023-04-28T04:43:33;13.30;99.90
30893;DHT22;17595;50.884;4.346;2023-04-28T04:45:59;13.40;99.90
30893;DHT22;17595;50.884;4.346;2023-04-28T04:48:25;13.30;99.90
30893;DHT22;17595;50.884;4.346;2023-04-28T04:50:50;13.40;99.90
30893;DHT22;17595;50.884;4.346;2023-04-28T04:53:16;13.40;99.90
30893;DHT22;17595;50.884;4.346;2023-04-28T04:55:42;13.40;99.90
30893;DHT22;17595;50.884;4.346;2023-04-28T04:58:07;13.40;99.90
30893;DHT22;17595;50.884;4.346;2023-04-28T05:00:33;13.30;99.90
30893;DHT22;17595;50.884;4.346;2023-04-28T05:02:59;13.50;99.90
30893;DHT22;17595;50.884;4.346;2023-04-28T05:05:25;13.60;99.90
30893;DHT22;17595;50.884;4.346;2023-04-28T05:07:50;13.60;99.90
30893;DHT22;17595;50.884;4.346;2023-04-28T05:10:16;13.50;99.90
30893;DHT22;17595;50.884;4.346;2023-04-28T05:12:41;13.50;99.90
30893;DHT22;17595;50.884;4.346;2023-04-28T05:15:09;13.60;99.90
30893;DHT22;17595;50.884;4.346;2023-04-28T05:17:35;13.60;99.90
30893;DHT22;17595;50.884;4.346;2023-04-28T05:20:01;13.60;99.90
30893;DHT22;17595;50.884;4.346;2023-04-28T05:22:26;13.50;99.90
30893;DHT22;17595;50.884;4.346;2023-04-28T05:24:52;13.60;99.90
30893;DHT22;17595;50.884;4.346;2023-04-28T05:27:18;13.60;99.90
30893;DHT22;17595;50.884;4.346;2023-04-28T05:29:44;13.70;99.90
30893;DHT22;17595;50.884;4.346;2023-04-28T05:32:10;13.70;99.90
30893;DHT22;17595;50.884;4.346;2023-04-28T05:34:35;13.60;99.90
30893;DHT22;17595;50.884;4.346;2023-04-28T05:37:01;13.50;99.90
30893;DHT22;17595;50.884;4.346;2023-04-28T05:39:27;13.50;99.90
30893;DHT22;17595;50.884;4.346;2023-04-28T05:41:52;13.40;99.90
30893;DHT22;17595;50.884;4.346;2023-04-28T05:44:18;13.40;99.90
30893;DHT22;17595;50.884;4.346;2023-04-28T05:46:43;13.40;99.90
30893;DHT22;17595;50.884;4.346;2023-04-28T05:49:09;13.40;99.90
30893;DHT22;17595;50.884;4.346;2023-04-28T05:51:35;13.40;99.90
30893;DHT22;17595;50.884;4.346;2023-04-28T05:54:01;13.40;99.90
30893;DHT22;17595;50.884;4.346;2023-04-28T05:56:27;13.40;99.90
30893;DHT22;17595;50.884;4.346;2023-04-28T05:58:53;13.40;99.90
30893;DHT22;17595;50.884;4.346;2023-04-28T06:01:19;13.50;99.90
30893;DHT22;17595;50.884;4.346;2023-04-28T06:03:44;13.50;99.90
30893;DHT22;17595;50.884;4.346;2023-04-28T06:06:10;13.60;99.90
30893;DHT22;17595;50.884;4.346;2023-04-28T06:08:37;13.70;99.90
30893;DHT22;17595;50.884;4.346;2023-04-28T06:11:03;13.70;99.90
30893;DHT22;17595;50.884;4.346;2023-04-28T06:13:28;13.80;99.90
30893;DHT22;17595;50.884;4.346;2023-04-28T06:15:54;13.80;99.90
30893;DHT22;17595;50.884;4.346;2023-04-28T06:18:20;13.80;99.90
30893;DHT22;17595;50.884;4.346;2023-04-28T06:20:46;13.90;99.90
30893;DHT22;17595;50.884;4.346;2023-04-28T06:23:11;14.00;99.90
30893;DHT22;17595;50.884;4.346;2023-04-28T06:25:37;14.00;99.90
30893;DHT22;17595;50.884;4.346;2023-04-28T06:28:03;14.10;99.90
30893;DHT22;17595;50.884;4.346;2023-04-28T06:30:29;14.20;99.90
30893;DHT22;17595;50.884;4.346;2023-04-28T06:32:54;14.00;99.90
30893;DHT22;17595;50.884;4.346;2023-04-28T06:35:22;14.10;99.90
30893;DHT22;17595;50.884;4.346;2023-04-28T06:37:48;14.20;99.90
30893;DHT22;17595;50.884;4.346;2023-04-28T06:40:13;14.30;99.90
30893;DHT22;17595;50.884;4.346;2023-04-28T06:42:39;14.40;99.90
30893;DHT22;17595;50.884;4.346;2023-04-28T06:45:05;14.50;99.90
30893;DHT22;17595;50.884;4.346;2023-04-28T06:47:31;14.40;99.90
30893;DHT22;17595;50.884;4.346;2023-04-28T06:49:56;14.50;99.90
30893;DHT22;17595;50.884;4.346;2023-04-28T06:52:22;14.60;99.90
30893;DHT22;17595;50.884;4.346;2023-04-28T06:54:49;14.70;99.90
30893;DHT22;17595;50.884;4.346;2023-04-28T06:57:16;14.90;99.90
30893;DHT22;17595;50.884;4.346;2023-04-28T06:59:41;14.90;99.90
30893;DHT22;17595;50.884;4.346;2023-04-28T07:02:09;15.00;99.90
30893;DHT22;17595;50.884;4.346;2023-04-28T07:04:35;14.90;99.90
30893;DHT22;17595;50.884;4.346;2023-04-28T07:07:01;15.10;99.90
30893;DHT22;17595;50.884;4.346;2023-04-28T07:09:27;15.10;99.90
30893;DHT22;17595;50.884;4.346;2023-04-28T07:11:53;14.90;99.90
30893;DHT22;17595;50.884;4.346;2023-04-28T07:14:18;14.80;99.90
30893;DHT22;17595;50.884;4.346;2023-04-28T07:16:44;14.70;99.90
30893;DHT22;17595;50.884;4.346;2023-04-28T07:19:12;14.60;99.90
30893;DHT22;17595;50.884;4.346;2023-04-28T07:21:39;14.60;99.90
30893;DHT22;17595;50.884;4.346;2023-04-28T07:24:08;14.60;99.90
30893;DHT22;17595;50.884;4.346;2023-04-28T07:26:34;14.60;99.90
30893;DHT22;17595;50.884;4.346;2023-04-28T07:28:59;14.60;99.90
30893;DHT22;17595;50.884;4.346;2023-04-28T07:31:26;14.50;99.90
30893;DHT22;17595;50.884;4.346;2023-04-28T07:33:53;14.60;99.90
30893;DHT22;17595;50.884;4.346;2023-04-28T07:36:20;14.90;99.90
30893;DHT22;17595;50.884;4.346;2023-04-28T07:38:45;15.20;99.90
30893;DHT22;17595;50.884;4.346;2023-04-28T07:41:12;15.30;99.90
30893;DHT22;17595;50.884;4.346;2023-04-28T07:43:38;15.50;99.90
30893;DHT22;17595;50.884;4.346;2023-04-28T07:46:05;15.40;99.90
30893;DHT22;17595;50.884;4.346;2023-04-28T07:48:31;15.50;99.90
30893;DHT22;17595;50.884;4.346;2023-04-28T07:50:57;15.60;99.90
30893;DHT22;17595;50.884;4.346;2023-04-28T07:53:24;15.80;99.90
30893;DHT22;17595;50.884;4.346;2023-04-28T07:55:49;16.00;99.90
30893;DHT22;17595;50.884;4.346;2023-04-28T07:58:16;16.10;99.90
30893;DHT22;17595;50.884;4.346;2023-04-28T08:00:41;16.30;99.90
30893;DHT22;17595;50.884;4.346;2023-04-28T08:03:11;16.40;99.90
30893;DHT22;17595;50.884;4.346;2023-04-28T08:05:39;16.60;99.90
30893;DHT22;17595;50.884;4.346;2023-04-28T08:08:05;16.40;99.90
30893;DHT22;17595;50.884;4.346;2023-04-28T08:10:33;16.20;99.90
30893;DHT22;17595;50.884;4.346;2023-04-28T08:12:59;16.20;99.90
30893;DHT22;17595;50.884;4.346;2023-04-28T08:15:25;16.50;99.90
30893;DHT22;17595;50.884;4.346;2023-04-28T08:17:52;16.10;99.90
30893;DHT22;17595;50.884;4.346;2023-04-28T08:20:18;16.20;99.90
30893;DHT22;17595;50.884;4.346;2023-04-28T08:22:46;16.20;99.90
30893;DHT22;17595;50.884;4.346;2023-04-28T08:25:12;16.20;99.90
30893;DHT22;17595;50.884;4.346;2023-04-28T08:27:38;16.20;99.90
30893;DHT22;17595;50.884;4.346;2023-04-28T08:30:07;16.30;99.90
30893;DHT22;17595;50.884;4.346;2023-04-28T08:32:34;16.40;99.90
30893;DHT22;17595;50.884;4.346;2023-04-28T08:34:59;16.50;99.90
30893;DHT22;17595;50.884;4.346;2023-04-28T08:37:26;16.50;99.90
30893;DHT22;17595;50.884;4.346;2023-04-28T08:39:52;16.60;99.90
30893;DHT22;17595;50.884;4.346;2023-04-28T08:42:28;16.50;99.90
30893;DHT22;17595;50.884;4.346;2023-04-28T08:44:56;16.50;99.90
30893;DHT22;17595;50.884;4.346;2023-04-28T08:47:33;16.30;99.90
30893;DHT22;17595;50.884;4.346;2023-04-28T08:50:02;16.50;99.90
30893;DHT22;17595;50.884;4.346;2023-04-28T08:52:29;16.60;99.90
30893;DHT22;17595;50.884;4.346;2023-04-28T08:55:04;16.80;99.90
30893;DHT22;17595;50.884;4.346;2023-04-28T08:57:38;16.80;99.90
30893;DHT22;17595;50.884;4.346;2023-04-28T09:00:05;16.50;99.90
30893;DHT22;17595;50.884;4.346;2023-04-28T09:02:31;16.30;99.90
30893;DHT22;17595;50.884;4.346;2023-04-28T09:04:57;16.50;99.90
30893;DHT22;17595;50.884;4.346;2023-04-28T09:07:23;16.70;99.90
30893;DHT22;17595;50.884;4.346;2023-04-28T09:09:48;17.00;99.90
30893;DHT22;17595;50.884;4.346;2023-04-28T09:12:15;17.10;99.90
30893;DHT22;17595;50.884;4.346;2023-04-28T09:14:42;17.10;99.90
30893;DHT22;17595;50.884;4.346;2023-04-28T09:17:13;17.30;99.90
30893;DHT22;17595;50.884;4.346;2023-04-28T09:19:40;17.50;99.90
30893;DHT22;17595;50.884;4.346;2023-04-28T09:22:09;17.10;99.90
30893;DHT22;17595;50.884;4.346;2023-04-28T09:24:39;17.20;99.90
30893;DHT22;17595;50.884;4.346;2023-04-28T09:27:09;17.10;99.90
30893;DHT22;17595;50.884;4.346;2023-04-28T09:29:38;17.10;99.90
30893;DHT22;17595;50.884;4.346;2023-04-28T09:32:18;17.40;99.90
30893;DHT22;17595;50.884;4.346;2023-04-28T09:34:46;17.40;99.90
30893;DHT22;17595;50.884;4.346;2023-04-28T09:37:15;17.30;99.90
30893;DHT22;17595;50.884;4.346;2023-04-28T09:39:46;17.10;99.90
30893;DHT22;17595;50.884;4.346;2023-04-28T09:42:36;17.20;99.90
30893;DHT22;17595;50.884;4.346;2023-04-28T09:45:13;17.30;99.90
30893;DHT22;17595;50.884;4.346;2023-04-28T09:47:41;17.30;99.90
30893;DHT22;17595;50.884;4.346;2023-04-28T09:50:10;17.40;99.90
30893;DHT22;17595;50.884;4.346;2023-04-28T09:52:42;17.60;99.90
30893;DHT22;17595;50.884;4.346;2023-04-28T09:55:11;17.90;99.90
30893;DHT22;17595;50.884;4.346;2023-04-28T09:57:38;18.20;99.90
30893;DHT22;17595;50.884;4.346;2023-04-28T10:00:06;18.10;99.90
30893;DHT22;17595;50.884;4.346;2023-04-28T10:02:35;18.10;99.90
30893;DHT22;17595;50.884;4.346;2023-04-28T10:05:01;17.70;99.90
30893;DHT22;17595;50.884;4.346;2023-04-28T10:07:28;18.10;99.90
30893;DHT22;17595;50.884;4.346;2023-04-28T10:09:55;18.40;99.90
30893;DHT22;17595;50.884;4.346;2023-04-28T10:12:24;18.40;99.90
30893;DHT22;17595;50.884;4.346;2023-04-28T10:14:51;17.90;99.90
30893;DHT22;17595;50.884;4.346;2023-04-28T10:17:20;17.60;99.90
30893;DHT22;17595;50.884;4.346;2023-04-28T10:19:53;17.30;99.90
30893;DHT22;17595;50.884;4.346;2023-04-28T10:27:46;16.80;99.90
30893;DHT22;17595;50.884;4.346;2023-04-28T10:30:18;16.60;99.90
30893;DHT22;17595;50.884;4.346;2023-04-28T10:32:44;16.70;99.90
30893;DHT22;17595;50.884;4.346;2023-04-28T10:38:16;16.70;99.90
30893;DHT22;17595;50.884;4.346;2023-04-28T10:40:47;16.60;99.90
30893;DHT22;17595;50.884;4.346;2023-04-28T10:46:06;16.90;99.90
30893;DHT22;17595;50.884;4.346;2023-04-28T10:51:21;17.40;99.90
30893;DHT22;17595;50.884;4.346;2023-04-28T10:56:22;17.30;99.90
30893;DHT22;17595;50.884;4.346;2023-04-28T10:58:55;16.90;99.90
30893;DHT22;17595;50.884;4.346;2023-04-28T11:01:29;16.80;99.90
30893;DHT22;17595;50.884;4.346;2023-04-28T11:04:07;16.80;99.90
30893;DHT22;17595;50.884;4.346;2023-04-28T11:06:39;16.60;99.90
30893;DHT22;17595;50.884;4.346;2023-04-28T11:19:23;16.70;99.90
30893;DHT22;17595;50.884;4.346;2023-04-28T11:21:50;16.70;99.90
30893;DHT22;17595;50.884;4.346;2023-04-28T11:24:16;16.90;99.90
30893;DHT22;17595;50.884;4.346;2023-04-28T11:26:42;17.00;99.90
30893;DHT22;17595;50.884;4.346;2023-04-28T11:29:08;16.80;99.90
30893;DHT22;17595;50.884;4.346;2023-04-28T11:31:35;16.60;99.90
30893;DHT22;17595;50.884;4.346;2023-04-28T11:34:10;16.40;99.90
30893;DHT22;17595;50.884;4.346;2023-04-28T11:36:39;16.40;99.90
30893;DHT22;17595;50.884;4.346;2023-04-28T11:39:07;16.40;99.90
30893;DHT22;17595;50.884;4.346;2023-04-28T11:41:34;16.40;99.90
30893;DHT22;17595;50.884;4.346;2023-04-28T11:44:12;16.60;99.90
30893;DHT22;17595;50.884;4.346;2023-04-28T11:46:48;16.70;99.90
30893;DHT22;17595;50.884;4.346;2023-04-28T11:49:24;16.30;99.90
30893;DHT22;17595;50.884;4.346;2023-04-28T11:51:50;16.10;99.90
30893;DHT22;17595;50.884;4.346;2023-04-28T11:54:24;15.70;99.90
30893;DHT22;17595;50.884;4.346;2023-04-28T11:56:51;15.80;99.90
30893;DHT22;17595;50.884;4.346;2023-04-28T11:59:17;15.90;99.90
30893;DHT22;17595;50.884;4.346;2023-04-28T12:01:47;16.00;99.90
30893;DHT22;17595;50.884;4.346;2023-04-28T12:04:13;16.10;99.90
30893;DHT22;17595;50.884;4.346;2023-04-28T12:06:40;16.10;99.90
30893;DHT22;17595;50.884;4.346;2023-04-28T12:09:15;16.30;99.90
30893;DHT22;17595;50.884;4.346;2023-04-28T12:11:55;16.40;99.90
30893;DHT22;17595;50.884;4.346;2023-04-28T12:14:22;16.50;99.90
30893;DHT22;17595;50.884;4.346;2023-04-28T12:16:48;16.40;99.90
30893;DHT22;17595;50.884;4.346;2023-04-28T12:19:15;16.50;99.90
30893;DHT22;17595;50.884;4.346;2023-04-28T12:21:42;16.20;99.90
30893;DHT22;17595;50.884;4.346;2023-04-28T12:24:20;16.20;99.90
30893;DHT22;17595;50.884;4.346;2023-04-28T12:26:47;16.20;99.90
30893;DHT22;17595;50.884;4.346;2023-04-28T12:29:35;16.20;99.90
30893;DHT22;17595;50.884;4.346;2023-04-28T12:32:03;16.30;99.90
30893;DHT22;17595;50.884;4.346;2023-04-28T12:34:28;16.50;99.90
30893;DHT22;17595;50.884;4.346;2023-04-28T12:36:55;16.70;99.90
30893;DHT22;17595;50.884;4.346;2023-04-28T12:39:21;16.60;99.90
30893;DHT22;17595;50.884;4.346;2023-04-28T12:41:48;16.60;99.90
30893;DHT22;17595;50.884;4.346;2023-04-28T12:44:13;16.70;99.90
30893;DHT22;17595;50.884;4.346;2023-04-28T12:46:40;16.70;99.90
30893;DHT22;17595;50.884;4.346;2023-04-28T12:49:06;16.70;99.90
30893;DHT22;17595;50.884;4.346;2023-04-28T12:51:32;16.70;99.90
30893;DHT22;17595;50.884;4.346;2023-04-28T12:54:00;16.60;99.90
30893;DHT22;17595;50.884;4.346;2023-04-28T12:56:25;16.60;99.90
30893;DHT22;17595;50.884;4.346;2023-04-28T12:58:52;16.60;99.90
30893;DHT22;17595;50.884;4.346;2023-04-28T13:01:17;16.40;99.90
30893;DHT22;17595;50.884;4.346;2023-04-28T13:03:43;16.60;99.90
30893;DHT22;17595;50.884;4.346;2023-04-28T13:06:09;16.80;99.90
30893;DHT22;17595;50.884;4.346;2023-04-28T13:08:35;17.30;99.90
30893;DHT22;17595;50.884;4.346;2023-04-28T13:11:01;17.40;99.90
30893;DHT22;17595;50.884;4.346;2023-04-28T13:13:30;17.10;99.90
30893;DHT22;17595;50.884;4.346;2023-04-28T13:15:55;17.00;99.90
30893;DHT22;17595;50.884;4.346;2023-04-28T13:18:22;17.00;99.90
30893;DHT22;17595;50.884;4.346;2023-04-28T13:20:48;17.20;99.90
30893;DHT22;17595;50.884;4.346;2023-04-28T13:23:14;17.30;99.90
30893;DHT22;17595;50.884;4.346;2023-04-28T13:25:39;17.00;99.90
30893;DHT22;17595;50.884;4.346;2023-04-28T13:28:05;16.70;99.90
30893;DHT22;17595;50.884;4.346;2023-04-28T13:30:31;16.70;99.90
30893;DHT22;17595;50.884;4.346;2023-04-28T13:32:57;16.50;99.90
30893;DHT22;17595;50.884;4.346;2023-04-28T13:35:23;16.40;99.90
30893;DHT22;17595;50.884;4.346;2023-04-28T13:37:49;16.50;99.90
30893;DHT22;17595;50.884;4.346;2023-04-28T13:40:14;16.50;99.90
30893;DHT22;17595;50.884;4.346;2023-04-28T13:42:40;16.50;99.90
30893;DHT22;17595;50.884;4.346;2023-04-28T13:45:06;16.50;99.90
30893;DHT22;17595;50.884;4.346;2023-04-28T13:47:32;16.60;99.90
30893;DHT22;17595;50.884;4.346;2023-04-28T13:49:58;16.60;99.90
30893;DHT22;17595;50.884;4.346;2023-04-28T13:52:25;16.60;99.90
30893;DHT22;17595;50.884;4.346;2023-04-28T13:54:51;16.40;99.90
30893;DHT22;17595;50.884;4.346;2023-04-28T13:57:17;16.40;99.90
30893;DHT22;17595;50.884;4.346;2023-04-28T13:59:42;16.50;99.90
30893;DHT22;17595;50.884;4.346;2023-04-28T14:02:08;16.50;99.90
30893;DHT22;17595;50.884;4.346;2023-04-28T14:04:36;16.60;99.90
30893;DHT22;17595;50.884;4.346;2023-04-28T14:07:02;16.60;99.90
30893;DHT22;17595;50.884;4.346;2023-04-28T14:09:27;16.70;99.90
30893;DHT22;17595;50.884;4.346;2023-04-28T14:11:53;17.00;99.90
30893;DHT22;17595;50.884;4.346;2023-04-28T14:14:23;17.00;99.90
30893;DHT22;17595;50.884;4.346;2023-04-28T14:16:48;16.80;99.90
30893;DHT22;17595;50.884;4.346;2023-04-28T14:19:14;16.50;99.90
30893;DHT22;17595;50.884;4.346;2023-04-28T14:21:42;16.50;99.90
30893;DHT22;17595;50.884;4.346;2023-04-28T14:24:08;16.60;99.90
30893;DHT22;17595;50.884;4.346;2023-04-28T14:26:37;16.50;99.90
30893;DHT22;17595;50.884;4.346;2023-04-28T14:29:03;16.50;99.90
30893;DHT22;17595;50.884;4.346;2023-04-28T14:31:30;16.60;99.90
30893;DHT22;17595;50.884;4.346;2023-04-28T14:33:55;16.70;99.90
30893;DHT22;17595;50.884;4.346;2023-04-28T14:36:21;16.70;99.90
30893;DHT22;17595;50.884;4.346;2023-04-28T14:38:47;16.80;99.90
30893;DHT22;17595;50.884;4.346;2023-04-28T14:41:12;16.90;99.90
30893;DHT22;17595;50.884;4.346;2023-04-28T14:43:38;16.90;99.90
30893;DHT22;17595;50.884;4.346;2023-04-28T14:46:04;17.20;99.90
30893;DHT22;17595;50.884;4.346;2023-04-28T14:48:31;16.90;99.90
30893;DHT22;17595;50.884;4.346;2023-04-28T14:50:57;16.80;99.90
30893;DHT22;17595;50.884;4.346;2023-04-28T14:53:23;16.80;99.90
30893;DHT22;17595;50.884;4.346;2023-04-28T14:55:49;16.80;99.90
30893;DHT22;17595;50.884;4.346;2023-04-28T14:58:15;16.80;99.90
30893;DHT22;17595;50.884;4.346;2023-04-28T15:00:40;16.90;99.90
30893;DHT22;17595;50.884;4.346;2023-04-28T15:03:06;17.00;99.90
30893;DHT22;17595;50.884;4.346;2023-04-28T15:05:32;17.10;99.90
30893;DHT22;17595;50.884;4.346;2023-04-28T15:07:58;17.20;99.90
30893;DHT22;17595;50.884;4.346;2023-04-28T15:10:23;17.60;99.90
30893;DHT22;17595;50.884;4.346;2023-04-28T15:12:50;17.70;99.90
30893;DHT22;17595;50.884;4.346;2023-04-28T15:15:16;17.40;99.90
30893;DHT22;17595;50.884;4.346;2023-04-28T15:17:42;17.30;99.90
30893;DHT22;17595;50.884;4.346;2023-04-28T15:20:09;17.40;99.90
30893;DHT22;17595;50.884;4.346;2023-04-28T15:22:35;17.30;99.90
30893;DHT22;17595;50.884;4.346;2023-04-28T15:25:02;17.30;99.90
30893;DHT22;17595;50.884;4.346;2023-04-28T15:27:27;17.20;99.90
30893;DHT22;17595;50.884;4.346;2023-04-28T15:29:53;17.20;99.90
30893;DHT22;17595;50.884;4.346;2023-04-28T15:32:19;16.90;99.90
30893;DHT22;17595;50.884;4.346;2023-04-28T15:34:44;16.80;99.90
30893;DHT22;17595;50.884;4.346;2023-04-28T15:40:02;16.70;99.90
30893;DHT22;17595;50.884;4.346;2023-04-28T15:42:29;16.50;99.90
30893;DHT22;17595;50.884;4.346;2023-04-28T15:44:55;16.50;99.90
30893;DHT22;17595;50.884;4.346;2023-04-28T15:47:21;16.40;99.90
30893;DHT22;17595;50.884;4.346;2023-04-28T15:49:49;16.40;99.90
30893;DHT22;17595;50.884;4.346;2023-04-28T15:52:14;16.40;99.90
30893;DHT22;17595;50.884;4.346;2023-04-28T15:54:41;16.50;99.90
30893;DHT22;17595;50.884;4.346;2023-04-28T15:57:07;16.40;99.90